Time;durP1;ratioP1;P1;durP2;ratioP2;P2;SDS_P1;SDS_P2;PMS_P1;PMS_P2;Temp;Humidity;BMP_temperature;BMP_pressure;BME280_temperature;BME280_humidity;BME280_pressure;Samples;Min_cycle;Max_cycle;Signal;HPM_P1;HPM_P2
2022/10/17 00:02:00;;;;;;;2.30;2.10;;;12.20;99.90;;;;;;5028225;28;20242;-80
2022/10/17 00:04:25;;;;;;;2.80;2.30;;;12.20;99.90;;;;;;5028038;28;20253;-81
2022/10/17 00:06:51;;;;;;;2.70;2.50;;;12.20;99.90;;;;;;5030075;28;20237;-81
2022/10/17 00:09:16;;;;;;;4.03;3.00;;;12.10;99.90;;;;;;5029963;28;20183;-80
2022/10/17 00:11:42;;;;;;;3.83;2.50;;;12.10;99.90;;;;;;5028787;28;20651;-77
2022/10/17 00:14:07;;;;;;;2.60;2.40;;;12.10;99.90;;;;;;5029801;28;20314;-81
2022/10/17 00:16:36;;;;;;;2.65;2.40;;;12.10;99.90;;;;;;5029717;28;20329;-80
2022/10/17 00:19:03;;;;;;;3.38;2.90;;;12.10;99.90;;;;;;5028102;28;20252;-78
2022/10/17 00:21:29;;;;;;;3.63;3.33;;;12.20;99.90;;;;;;5027708;28;20205;-80
2022/10/17 00:23:55;;;;;;;2.88;2.65;;;12.20;99.90;;;;;;5027935;28;20559;-79
2022/10/17 00:26:21;;;;;;;4.57;3.13;;;12.30;99.90;;;;;;5029327;28;20186;-79
2022/10/17 00:28:51;;;;;;;3.53;3.22;;;12.30;99.90;;;;;;5029169;28;20182;-79
2022/10/17 00:31:19;;;;;;;3.03;2.78;;;12.40;99.90;;;;;;5029286;28;20179;-79
2022/10/17 00:33:45;;;;;;;3.13;2.90;;;12.50;99.90;;;;;;5029402;28;20206;-81
2022/10/17 00:36:17;;;;;;;3.35;3.05;;;12.50;99.90;;;;;;5029467;28;20225;-79
2022/10/17 00:38:45;;;;;;;4.50;2.90;;;12.70;99.90;;;;;;5029282;28;20211;-79
2022/10/17 00:41:14;;;;;;;3.50;2.80;;;12.70;99.90;;;;;;5029232;28;20178;-78
2022/10/17 00:44:03;;;;;;;2.85;2.58;;;12.80;99.90;;;;;;5026044;28;20213;-79
2022/10/17 00:46:33;;;;;;;3.10;2.90;;;12.80;99.90;;;;;;5028276;28;20611;-80
2022/10/17 00:49:04;;;;;;;4.60;3.08;;;12.80;99.90;;;;;;5027714;28;20183;-79
2022/10/17 00:51:49;;;;;;;4.03;3.65;;;12.80;99.90;;;;;;5029139;28;20193;-81
2022/10/17 00:54:18;;;;;;;3.78;3.47;;;12.80;99.90;;;;;;5027221;28;20256;-80
2022/10/17 00:56:45;;;;;;;3.28;2.90;;;12.70;99.90;;;;;;5028945;28;20194;-81
2022/10/17 00:59:12;;;;;;;3.47;3.17;;;12.70;99.90;;;;;;5028897;28;20202;-79
2022/10/17 01:01:40;;;;;;;2.83;2.53;;;12.80;99.90;;;;;;5026715;28;20183;-81
2022/10/17 01:04:06;;;;;;;2.75;2.55;;;12.70;99.90;;;;;;5026499;28;20199;-80
2022/10/17 01:06:31;;;;;;;3.47;2.70;;;12.70;99.90;;;;;;5029155;28;20191;-81
2022/10/17 01:08:57;;;;;;;2.97;2.72;;;12.80;99.90;;;;;;5028490;28;20183;-81
2022/10/17 01:11:46;;;;;;;3.08;2.80;;;12.80;99.90;;;;;;5028217;28;20179;-77
2022/10/17 01:14:33;;;;;;;3.25;2.97;;;12.90;99.90;;;;;;5028182;28;20568;-79
2022/10/17 01:17:03;;;;;;;4.80;3.70;;;13.00;99.90;;;;;;5027215;28;20508;-78
2022/10/17 01:19:59;;;;;;;4.47;3.60;;;13.00;99.90;;;;;;5028085;28;20224;-80
2022/10/17 01:22:34;;;;;;;3.88;3.58;;;13.10;99.90;;;;;;5026728;28;20183;-78
2022/10/17 01:25:21;;;;;;;4.78;4.28;;;13.10;1.00;;;;;;5027727;28;20297;-79
2022/10/17 01:28:13;;;;;;;5.05;3.55;;;13.10;1.00;;;;;;5027749;28;20178;-81
2022/10/17 01:31:01;;;;;;;5.05;4.65;;;13.10;1.00;;;;;;5025818;28;20262;-79
2022/10/17 01:33:41;;;;;;;5.60;5.10;;;13.10;1.00;;;;;;5019735;28;20199;-80
2022/10/17 01:36:17;;;;;;;5.65;5.15;;;13.20;1.00;;;;;;5023640;28;20178;-79
2022/10/17 01:38:50;;;;;;;5.80;5.30;;;13.20;1.00;;;;;;5023197;28;20285;-79
2022/10/17 01:41:50;;;;;;;5.28;4.78;;;13.10;1.00;;;;;;5026144;28;20183;-78
2022/10/17 01:44:35;;;;;;;5.70;5.20;;;13.10;1.00;;;;;;5027955;28;20218;-80
2022/10/17 01:47:11;;;;;;;6.13;5.50;;;13.20;1.00;;;;;;5028256;28;20186;-80
2022/10/17 01:49:39;;;;;;;5.72;5.25;;;13.20;1.00;;;;;;5028356;28;20178;-79
2022/10/17 01:52:19;;;;;;;5.95;5.40;;;13.20;1.00;;;;;;5026417;28;20187;-80
2022/10/17 01:54:52;;;;;;;4.88;4.47;;;13.20;1.00;;;;;;5026314;28;20206;-80
2022/10/17 01:57:30;;;;;;;5.10;4.60;;;13.20;1.00;;;;;;5028246;28;20265;-80
2022/10/17 01:59:56;;;;;;;5.30;4.88;;;13.20;1.00;;;;;;5029822;28;20593;-80
2022/10/17 02:02:24;;;;;;;5.63;5.03;;;13.30;1.00;;;;;;5031395;28;20235;-80
2022/10/17 02:04:52;;;;;;;5.55;5.05;;;13.30;1.00;;;;;;5031033;28;20195;-79
2022/10/17 02:07:18;;;;;;;4.53;4.15;;;13.30;1.00;;;;;;5031410;28;20194;-77
2022/10/17 02:09:43;;;;;;;5.05;4.35;;;13.30;99.90;;;;;;5031269;28;20186;-80
2022/10/17 02:12:38;;;;;;;4.22;3.83;;;13.30;99.90;;;;;;5031040;28;20190;-80
2022/10/17 02:15:28;;;;;;;4.63;4.22;;;13.10;99.90;;;;;;5030597;28;20223;-79
2022/10/17 02:18:27;;;;;;;5.13;4.28;;;13.00;99.90;;;;;;5029776;28;20178;-79
2022/10/17 02:20:59;;;;;;;4.53;3.97;;;12.90;1.00;;;;;;5031353;28;20685;-78
2022/10/17 02:23:57;;;;;;;5.50;5.00;;;12.80;1.00;;;;;;5030180;28;20203;-77
2022/10/17 02:26:46;;;;;;;4.88;4.38;;;12.80;1.00;;;;;;5029759;28;20191;-76
2022/10/17 02:29:17;;;;;;;4.10;3.70;;;12.70;1.00;;;;;;5030674;28;20198;-75
2022/10/17 02:31:53;;;;;;;4.80;4.40;;;12.60;1.00;;;;;;5030053;28;20183;-80
2022/10/17 02:34:25;;;;;;;4.53;4.13;;;12.50;1.00;;;;;;5030406;28;20513;-80
2022/10/17 02:36:56;;;;;;;5.13;4.65;;;12.50;1.00;;;;;;5030046;28;20197;-78
2022/10/17 02:39:23;;;;;;;4.43;3.90;;;12.40;1.00;;;;;;5030209;28;20206;-80
2022/10/17 02:41:51;;;;;;;4.30;3.95;;;12.40;1.00;;;;;;5028687;28;20186;-78
2022/10/17 02:44:17;;;;;;;4.45;4.05;;;12.30;1.00;;;;;;5029442;28;20616;-81
2022/10/17 02:46:49;;;;;;;3.90;3.60;;;12.30;1.00;;;;;;5028506;28;20647;-80
2022/10/17 02:49:20;;;;;;;4.70;4.13;;;12.30;1.00;;;;;;5028611;28;20684;-79
2022/10/17 02:52:00;;;;;;;4.55;4.15;;;12.30;1.00;;;;;;5030073;28;20183;-80
2022/10/17 02:54:47;;;;;;;3.78;3.40;;;12.20;1.00;;;;;;5030405;28;20202;-77
2022/10/17 02:57:33;;;;;;;5.38;4.78;;;12.10;1.00;;;;;;5030169;28;20182;-80
2022/10/17 03:00:00;;;;;;;6.95;5.22;;;12.10;1.00;;;;;;5029553;28;20237;-78
2022/10/17 03:02:26;;;;;;;6.45;5.78;;;12.10;93.50;;;;;;5029895;28;20189;-78
2022/10/17 03:04:52;;;;;;;6.35;5.75;;;12.00;99.90;;;;;;5030152;28;20769;-80
2022/10/17 03:07:18;;;;;;;6.13;5.45;;;11.90;1.00;;;;;;5029340;28;20242;-78
2022/10/17 03:09:43;;;;;;;6.90;5.90;;;11.90;99.90;;;;;;5029681;28;20199;-80
2022/10/17 03:12:09;;;;;;;7.55;6.13;;;12.10;99.90;;;;;;5030080;28;20289;-78
2022/10/17 03:14:34;;;;;;;6.18;5.57;;;11.80;1.00;;;;;;5029301;28;20218;-80
2022/10/17 03:17:00;;;;;;;7.00;6.30;;;11.90;99.90;;;;;;5029630;28;20191;-76
2022/10/17 03:19:26;;;;;;;7.47;6.15;;;11.80;99.90;;;;;;5028229;28;20210;-80
2022/10/17 03:21:51;;;;;;;7.72;5.95;;;11.90;1.00;;;;;;5029320;28;20187;-82
2022/10/17 03:24:17;;;;;;;7.22;6.45;;;11.80;99.90;;;;;;5027831;28;20221;-79
2022/10/17 03:26:43;;;;;;;6.43;5.82;;;11.90;99.90;;;;;;5029373;28;20179;-81
2022/10/17 03:29:11;;;;;;;6.30;5.70;;;11.80;1.00;;;;;;5032768;28;20282;-78
2022/10/17 03:31:36;;;;;;;5.95;5.30;;;11.80;99.90;;;;;;5024119;28;20265;-81
2022/10/17 03:34:02;;;;;;;5.88;5.38;;;11.80;1.00;;;;;;5029246;28;20298;-78
2022/10/17 03:36:28;;;;;;;7.10;6.05;;;11.80;1.00;;;;;;5029239;28;20253;-81
2022/10/17 03:38:54;;;;;;;6.97;6.28;;;11.80;99.90;;;;;;5028778;28;20214;-79
2022/10/17 03:41:20;;;;;;;7.15;5.70;;;11.80;1.00;;;;;;5029591;28;20179;-81
2022/10/17 03:43:45;;;;;;;6.45;5.85;;;11.80;99.90;;;;;;5028875;28;20482;-80
2022/10/17 03:46:11;;;;;;;7.18;6.20;;;11.90;1.00;;;;;;5028636;28;20212;-81
2022/10/17 03:48:37;;;;;;;6.32;5.72;;;11.90;74.50;;;;;;5028595;28;20232;-78
2022/10/17 03:51:07;;;;;;;7.55;6.60;;;12.10;1.00;;;;;;5033087;28;20186;-77
2022/10/17 03:53:33;;;;;;;7.78;6.63;;;12.20;1.00;;;;;;5027280;28;20241;-79
2022/10/17 03:56:19;;;;;;;8.55;7.05;;;12.10;1.00;;;;;;5027591;28;20222;-80
2022/10/17 03:58:45;;;;;;;7.28;6.57;;;12.10;99.90;;;;;;5028782;28;20210;-79
2022/10/17 04:01:12;;;;;;;7.95;6.20;;;12.10;1.00;;;;;;5028888;28;20608;-77
2022/10/17 04:03:38;;;;;;;5.82;5.30;;;12.10;1.00;;;;;;5027370;28;20206;-78
2022/10/17 04:06:05;;;;;;;6.90;6.28;;;12.00;1.00;;;;;;5027260;28;20186;-79
2022/10/17 04:08:32;;;;;;;6.95;5.93;;;11.90;1.00;;;;;;5026908;28;20175;-81
2022/10/17 04:11:06;;;;;;;7.65;6.85;;;12.00;99.90;;;;;;5029015;28;20248;-81
2022/10/17 04:13:33;;;;;;;6.00;5.40;;;11.90;1.00;;;;;;5028043;28;20205;-80
2022/10/17 04:16:05;;;;;;;7.53;6.82;;;11.90;1.00;;;;;;5043061;28;20217;-80
2022/10/17 04:18:31;;;;;;;6.57;5.95;;;11.90;1.00;;;;;;5028088;28;20199;-81
2022/10/17 04:20:59;;;;;;;6.60;6.00;;;11.80;1.00;;;;;;5027282;28;20714;-78
2022/10/17 04:23:26;;;;;;;6.28;5.68;;;12.00;1.00;;;;;;5025033;28;20206;-79
2022/10/17 04:25:55;;;;;;;6.13;5.55;;;11.80;1.00;;;;;;5023826;28;20175;-78
2022/10/17 04:28:24;;;;;;;7.93;7.13;;;12.00;1.00;;;;;;5023339;28;20191;-78
2022/10/17 04:31:05;;;;;;;9.00;8.10;;;11.90;1.00;;;;;;5025517;28;20198;-78
2022/10/17 04:33:34;;;;;;;8.38;7.57;;;11.90;1.00;;;;;;5030017;28;20725;-78
2022/10/17 04:36:15;;;;;;;7.30;6.70;;;11.90;99.90;;;;;;5024001;28;20678;-78
2022/10/17 04:38:41;;;;;;;8.43;7.63;;;11.80;21.60;;;;;;5026569;28;20584;-77
2022/10/17 04:41:11;;;;;;;7.75;6.93;;;11.80;99.90;;;;;;5026057;28;20183;-80
2022/10/17 04:43:38;;;;;;;8.30;7.47;;;11.90;99.90;;;;;;5027027;28;20248;-79
2022/10/17 04:46:09;;;;;;;8.25;7.45;;;11.80;99.90;;;;;;5027660;28;20233;-78
2022/10/17 04:48:36;;;;;;;8.30;7.45;;;11.80;1.00;;;;;;5026851;28;20215;-80
2022/10/17 04:51:04;;;;;;;8.45;7.20;;;11.80;1.00;;;;;;5028021;28;20237;-80
2022/10/17 04:53:31;;;;;;;8.43;7.53;;;11.80;99.90;;;;;;5027599;28;20207;-80
2022/10/17 04:55:57;;;;;;;9.40;7.38;;;11.90;99.90;;;;;;5025567;28;20182;-78
2022/10/17 04:58:23;;;;;;;8.43;7.53;;;11.90;1.00;;;;;;5024854;28;20207;-78
2022/10/17 05:01:00;;;;;;;9.90;7.88;;;11.90;99.90;;;;;;5024296;28;20186;-76
2022/10/17 05:03:26;;;;;;;9.23;7.90;;;11.80;1.00;;;;;;5033430;28;20194;-79
2022/10/17 05:05:51;;;;;;;7.55;6.65;;;11.70;99.90;;;;;;5027485;28;20175;-78
2022/10/17 05:08:17;;;;;;;9.63;8.73;;;11.70;1.00;;;;;;5027754;28;20218;-78
2022/10/17 05:10:45;;;;;;;8.45;7.65;;;11.70;1.00;;;;;;5027305;28;20282;-79
2022/10/17 05:13:11;;;;;;;8.70;7.85;;;11.70;46.50;;;;;;5027258;28;20174;-80
2022/10/17 05:15:37;;;;;;;8.45;7.57;;;11.80;78.60;;;;;;5027078;28;20186;-80
2022/10/17 05:18:04;;;;;;;8.50;7.68;;;11.70;91.80;;;;;;5026434;28;20674;-80
2022/10/17 05:20:29;;;;;;;8.70;7.80;;;11.70;1.00;;;;;;5026820;28;20194;-80
2022/10/17 05:22:58;;;;;;;8.10;7.30;;;11.70;99.90;;;;;;5027434;28;20259;-80
2022/10/17 05:25:24;;;;;;;8.90;7.60;;;11.60;1.00;;;;;;5025698;28;20179;-79
2022/10/17 05:27:50;;;;;;;8.15;7.35;;;11.60;1.00;;;;;;5027038;28;20258;-79
2022/10/17 05:30:15;;;;;;;8.50;7.70;;;11.60;1.00;;;;;;5026685;28;20219;-78
2022/10/17 05:32:41;;;;;;;8.02;6.95;;;11.80;1.00;;;;;;5030748;28;20612;-80
2022/10/17 05:35:07;;;;;;;8.30;7.50;;;11.50;1.00;;;;;;5031494;28;20226;-78
2022/10/17 05:37:32;;;;;;;8.85;7.95;;;11.50;1.00;;;;;;5031708;28;20249;-79
2022/10/17 05:39:58;;;;;;;8.90;8.00;;;11.60;1.00;;;;;;5030413;28;20272;-79
2022/10/17 05:42:24;;;;;;;7.78;6.93;;;11.50;36.80;;;;;;5030643;28;20171;-79
2022/10/17 05:44:49;;;;;;;8.13;7.35;;;11.50;25.70;;;;;;5030578;28;20207;-79
2022/10/17 05:47:16;;;;;;;7.53;6.78;;;11.50;1.00;;;;;;5031292;28;20200;-79
2022/10/17 05:49:42;;;;;;;8.45;7.55;;;11.50;1.00;;;;;;5030950;28;20700;-81
2022/10/17 05:52:07;;;;;;;9.30;8.40;;;11.50;1.00;;;;;;5029516;28;20186;-79
2022/10/17 05:54:33;;;;;;;10.40;9.35;;;11.50;1.00;;;;;;5028532;28;20230;-78
2022/10/17 05:56:59;;;;;;;10.32;9.23;;;11.50;1.00;;;;;;5026477;28;20214;-78
2022/10/17 06:02:02;;;;;;;9.85;8.82;;;11.50;1.00;;;;;;5031710;28;20225;-80
2022/10/17 06:04:27;;;;;;;9.25;8.35;;;11.50;1.00;;;;;;5033763;28;20900;-78
2022/10/17 06:06:55;;;;;;;9.02;8.13;;;11.60;1.00;;;;;;5043858;28;20603;-81
2022/10/17 06:09:21;;;;;;;9.45;8.63;;;11.60;99.90;;;;;;5043965;28;20183;-79
2022/10/17 06:11:46;;;;;;;10.57;9.50;;;11.80;1.00;;;;;;5035689;28;20587;-81
2022/10/17 06:14:12;;;;;;;9.20;7.45;;;11.80;1.00;;;;;;5037104;28;20217;-80
2022/10/17 06:16:38;;;;;;;8.35;7.55;;;11.80;1.00;;;;;;5044201;28;20179;-79
2022/10/17 06:19:03;;;;;;;8.20;7.40;;;11.80;99.90;;;;;;5044775;28;20198;-80
2022/10/17 06:21:29;;;;;;;7.93;7.22;;;11.70;99.90;;;;;;5045238;28;20707;-81
2022/10/17 06:23:55;;;;;;;8.27;7.47;;;11.70;1.00;;;;;;5044121;28;20210;-82
2022/10/17 06:26:20;;;;;;;8.05;7.25;;;11.70;91.70;;;;;;5041315;28;20205;-80
2022/10/17 06:28:46;;;;;;;8.60;7.30;;;11.80;1.00;;;;;;5044939;28;20282;-80
2022/10/17 06:31:15;;;;;;;7.65;6.95;;;12.00;1.00;;;;;;5043422;28;20179;-79
2022/10/17 06:33:41;;;;;;;8.15;6.85;;;12.30;99.90;;;;;;5040379;28;20202;-81
2022/10/17 06:36:10;;;;;;;7.80;7.10;;;12.20;99.90;;;;;;5042739;28;20197;-81
2022/10/17 06:38:36;;;;;;;7.43;6.70;;;12.20;1.10;;;;;;5043875;28;20198;-80
2022/10/17 06:41:07;;;;;;;7.18;6.47;;;12.30;95.50;;;;;;5043349;28;20209;-79
2022/10/17 06:43:37;;;;;;;7.80;6.70;;;12.30;99.90;;;;;;5041093;28;20272;-79
2022/10/17 06:46:04;;;;;;;8.25;7.45;;;12.50;1.00;;;;;;5043751;28;21246;-80
2022/10/17 06:48:29;;;;;;;7.50;6.88;;;12.70;99.90;;;;;;5040569;28;20193;-79
2022/10/17 06:51:04;;;;;;;7.68;6.95;;;12.70;1.00;;;;;;5040783;28;20186;-82
2022/10/17 06:53:32;;;;;;;7.18;6.47;;;12.80;1.00;;;;;;5036554;28;20209;-82
2022/10/17 06:56:01;;;;;;;7.18;6.57;;;12.80;1.00;;;;;;5037661;28;20189;-81
2022/10/17 06:58:28;;;;;;;6.63;6.03;;;12.80;1.00;;;;;;5035307;28;20202;-82
2022/10/17 07:01:06;;;;;;;6.20;5.60;;;12.90;1.00;;;;;;5036525;28;20224;-82
2022/10/17 07:03:32;;;;;;;5.85;5.25;;;12.90;1.00;;;;;;5034835;28;20234;-81
2022/10/17 07:05:57;;;;;;;6.15;5.55;;;13.00;1.00;;;;;;5036619;28;20512;-81
2022/10/17 07:08:23;;;;;;;6.00;5.32;;;13.10;99.90;;;;;;5036266;28;20178;-81
2022/10/17 07:10:49;;;;;;;5.38;4.90;;;13.20;15.10;;;;;;5035674;28;20178;-81
2022/10/17 07:13:15;;;;;;;7.65;4.93;;;13.30;1.00;;;;;;5036729;28;20316;-80
2022/10/17 07:15:41;;;;;;;5.20;4.70;;;13.50;99.90;;;;;;5035334;28;20183;-81
2022/10/17 07:18:07;;;;;;;6.57;4.60;;;13.60;1.00;;;;;;5035789;28;20190;-80
2022/10/17 07:20:33;;;;;;;5.07;4.68;;;13.70;1.00;;;;;;5037469;28;20573;-82
2022/10/17 07:22:59;;;;;;;4.80;4.30;;;13.70;99.90;;;;;;5034414;28;20287;-80
2022/10/17 07:25:24;;;;;;;4.93;4.53;;;13.80;99.90;;;;;;5034868;28;20187;-82
2022/10/17 07:27:51;;;;;;;5.22;4.70;;;13.90;99.90;;;;;;5043338;28;20182;-81
2022/10/17 07:30:18;;;;;;;4.88;4.43;;;14.10;99.90;;;;;;5036271;28;20701;-81
2022/10/17 07:32:44;;;;;;;5.95;4.60;;;14.20;1.00;;;;;;5033862;28;20187;-81
2022/10/17 07:35:10;;;;;;;5.03;4.10;;;14.40;1.00;;;;;;5036627;28;20232;-81
2022/10/17 07:37:36;;;;;;;4.32;3.95;;;14.60;1.00;;;;;;5036996;28;20606;-83
2022/10/17 07:40:02;;;;;;;4.63;3.88;;;14.70;1.00;;;;;;5033494;28;20234;-82
2022/10/17 07:42:28;;;;;;;4.30;3.90;;;14.90;1.00;;;;;;5035403;28;20186;-82
2022/10/17 07:44:54;;;;;;;4.25;3.85;;;15.00;99.90;;;;;;5035058;28;20202;-81
2022/10/17 07:47:20;;;;;;;4.15;3.75;;;15.20;99.90;;;;;;5035489;28;20179;-81
2022/10/17 07:49:45;;;;;;;3.95;3.50;;;15.30;99.90;;;;;;5035969;28;20229;-81
2022/10/17 07:52:13;;;;;;;3.58;3.28;;;15.30;99.90;;;;;;5033701;28;20195;-81
2022/10/17 07:54:39;;;;;;;3.88;3.47;;;15.40;99.90;;;;;;5035015;28;20195;-81
2022/10/17 07:57:05;;;;;;;4.57;3.53;;;15.50;99.90;;;;;;5036571;28;20195;-81
2022/10/17 07:59:35;;;;;;;3.30;3.10;;;15.50;99.90;;;;;;5035565;28;20198;-81
2022/10/17 08:02:01;;;;;;;5.35;3.97;;;15.70;99.90;;;;;;5034847;28;20202;-81
2022/10/17 08:04:27;;;;;;;4.00;3.60;;;15.70;99.90;;;;;;5035763;28;20279;-81
2022/10/17 08:06:52;;;;;;;5.15;3.72;;;15.80;99.90;;;;;;5033776;28;20818;-81
2022/10/17 08:09:18;;;;;;;4.38;3.03;;;16.00;99.90;;;;;;5037070;28;20224;-82
2022/10/17 08:11:44;;;;;;;3.22;2.83;;;16.10;99.90;;;;;;5033597;28;20179;-80
2022/10/17 08:14:12;;;;;;;3.53;3.10;;;16.30;99.90;;;;;;5035229;28;20241;-81
2022/10/17 08:16:37;;;;;;;3.92;3.63;;;16.40;99.90;;;;;;5034683;28;20209;-81
2022/10/17 08:19:03;;;;;;;3.58;3.00;;;16.60;99.90;;;;;;5034496;28;20199;-82
2022/10/17 08:21:29;;;;;;;3.90;2.80;;;16.80;99.90;;;;;;5034175;28;20218;-81
2022/10/17 08:23:55;;;;;;;3.85;3.00;;;17.10;95.10;;;;;;5028067;28;20210;-81
2022/10/17 08:26:21;;;;;;;3.42;3.13;;;17.40;49.30;;;;;;5036570;28;20708;-81
2022/10/17 08:28:47;;;;;;;3.70;3.40;;;17.60;30.10;;;;;;5034668;28;20178;-81
2022/10/17 08:31:17;;;;;;;3.53;2.90;;;17.70;15.60;;;;;;5034865;28;20187;-83
2022/10/17 08:33:42;;;;;;;4.63;3.13;;;17.80;14.90;;;;;;5033690;28;20198;-81
2022/10/17 08:36:09;;;;;;;4.18;2.92;;;17.90;1.00;;;;;;5034341;28;20191;-81
2022/10/17 08:38:36;;;;;;;5.38;3.00;;;18.00;1.00;;;;;;5033578;28;20628;-80
2022/10/17 08:41:06;;;;;;;3.55;2.92;;;18.20;1.00;;;;;;5035127;28;20533;-79
2022/10/17 08:43:57;;;;;;;2.60;2.40;;;18.30;1.00;;;;;;5035409;28;20202;-80
2022/10/17 08:46:30;;;;;;;2.70;2.50;;;18.20;1.00;;;;;;5026827;28;20262;-82
2022/10/17 08:48:57;;;;;;;3.63;2.92;;;18.20;1.00;;;;;;5023835;28;20268;-81
2022/10/17 08:51:32;;;;;;;5.88;3.05;;;18.30;1.00;;;;;;5027183;28;20218;-81
2022/10/17 08:54:09;;;;;;;6.13;2.72;;;18.40;1.00;;;;;;5025819;28;20209;-80
2022/10/17 08:57:09;;;;;;;3.65;2.60;;;18.40;1.00;;;;;;5025930;28;20250;-82
2022/10/17 08:59:35;;;;;;;2.78;2.58;;;18.50;1.00;;;;;;5014425;28;20229;-81
2022/10/17 09:02:19;;;;;;;3.40;2.50;;;18.60;1.00;;;;;;5027573;28;20202;-81
2022/10/17 09:05:09;;;;;;;3.92;2.90;;;18.60;1.00;;;;;;5033361;28;20199;-81
2022/10/17 09:08:03;;;;;;;3.95;2.92;;;18.50;1.00;;;;;;5035656;28;20178;-81
2022/10/17 09:10:51;;;;;;;4.82;3.40;;;18.60;1.00;;;;;;5042449;28;20220;-82
2022/10/17 09:13:22;;;;;;;5.15;2.75;;;18.70;1.00;;;;;;5033708;28;20212;-80
2022/10/17 09:16:09;;;;;;;4.85;2.55;;;18.80;1.00;;;;;;5034262;28;20614;-81
2022/10/17 09:18:41;;;;;;;2.55;2.20;;;18.90;1.00;;;;;;5033855;28;20199;-80
2022/10/17 09:21:13;;;;;;;4.50;2.70;;;19.10;1.00;;;;;;5034984;28;20170;-80
2022/10/17 09:23:47;;;;;;;7.78;2.42;;;19.10;1.00;;;;;;5032258;28;20757;-80
2022/10/17 09:26:14;;;;;;;4.03;2.60;;;19.30;1.00;;;;;;5026683;28;20182;-81
2022/10/17 09:28:41;;;;;;;5.10;2.47;;;19.40;1.00;;;;;;5031844;28;20184;-79
2022/10/17 09:31:28;;;;;;;4.90;2.53;;;19.70;1.00;;;;;;5034420;28;20852;-79
2022/10/17 09:33:55;;;;;;;3.28;2.70;;;19.80;1.00;;;;;;5030746;28;20193;-82
2022/10/17 09:36:39;;;;;;;2.90;2.30;;;20.00;1.00;;;;;;5034896;28;20186;-82
2022/10/17 09:39:18;;;;;;;5.45;2.55;;;19.90;1.00;;;;;;5039744;28;20206;-82
2022/10/17 09:41:50;;;;;;;3.72;2.45;;;20.00;1.00;;;;;;5051416;28;20183;-84
2022/10/17 09:44:21;;;;;;;3.88;2.42;;;20.30;1.00;;;;;;5032910;28;20194;-84
2022/10/17 09:46:56;;;;;;;3.95;2.53;;;20.40;1.00;;;;;;5032972;28;20170;-82
2022/10/17 09:49:40;;;;;;;2.42;2.22;;;20.70;1.00;;;;;;5035418;28;20243;-83
2022/10/17 09:52:15;;;;;;;3.45;2.00;;;20.70;1.00;;;;;;5026595;28;20371;-82
2022/10/17 09:54:45;;;;;;;2.55;2.35;;;20.90;1.00;;;;;;5036503;28;20213;-82
2022/10/17 09:57:13;;;;;;;3.33;2.47;;;20.90;1.00;;;;;;5028338;28;20190;-85
2022/10/17 09:59:45;;;;;;;4.20;2.70;;;20.90;1.00;;;;;;5029114;28;20210;-82
2022/10/17 10:02:14;;;;;;;2.42;2.30;;;21.00;1.00;;;;;;5026119;28;20190;-82
2022/10/17 10:05:03;;;;;;;3.50;2.47;;;21.10;1.00;;;;;;5023334;28;20195;-82
2022/10/17 10:07:31;;;;;;;3.90;2.30;;;21.30;1.00;;;;;;5024504;28;20179;-82
2022/10/17 10:09:59;;;;;;;3.58;2.60;;;21.40;1.00;;;;;;5025566;28;20193;-82
2022/10/17 10:12:31;;;;;;;4.57;3.03;;;21.30;1.00;;;;;;5031170;28;20187;-82
2022/10/17 10:14:57;;;;;;;3.05;2.75;;;21.40;1.00;;;;;;5031392;28;20211;-80
2022/10/17 10:17:27;;;;;;;3.00;2.50;;;21.50;1.00;;;;;;5029155;28;20548;-78
2022/10/17 10:19:53;;;;;;;4.82;2.45;;;21.60;1.00;;;;;;5040032;28;20202;-79
2022/10/17 10:22:24;;;;;;;2.88;2.25;;;21.60;1.00;;;;;;5040057;28;20178;-79
2022/10/17 10:25:15;;;;;;;3.72;2.80;;;21.50;1.00;;;;;;5039397;28;20289;-79
2022/10/17 10:27:46;;;;;;;4.15;2.65;;;21.50;1.00;;;;;;5040504;28;20179;-79
2022/10/17 10:30:27;;;;;;;3.22;2.42;;;21.30;1.00;;;;;;5037259;28;20202;-81
2022/10/17 10:32:53;;;;;;;3.70;2.50;;;21.30;1.00;;;;;;5035819;28;20232;-81
2022/10/17 10:35:29;;;;;;;2.60;2.40;;;21.30;1.00;;;;;;5044439;28;20298;-82
2022/10/17 10:37:57;;;;;;;3.45;2.40;;;21.20;1.00;;;;;;5035921;28;20871;-81
2022/10/17 10:40:28;;;;;;;3.85;2.20;;;21.30;1.00;;;;;;5033252;28;20237;-81
2022/10/17 10:42:57;;;;;;;3.40;2.63;;;21.20;1.00;;;;;;5036022;28;20182;-81
2022/10/17 10:45:41;;;;;;;3.55;2.20;;;21.20;1.00;;;;;;5035427;28;20179;-83
2022/10/17 10:48:23;;;;;;;5.22;3.30;;;21.10;1.00;;;;;;5036092;28;20193;-82
2022/10/17 10:51:06;;;;;;;4.25;2.70;;;20.90;1.00;;;;;;5036209;28;20191;-81
2022/10/17 10:53:43;;;;;;;6.25;2.70;;;20.70;1.00;;;;;;5037367;28;20256;-81
2022/10/17 10:56:15;;;;;;;2.60;2.35;;;20.90;1.00;;;;;;5037801;28;20174;-82
2022/10/17 10:58:52;;;;;;;3.58;2.75;;;21.10;1.00;;;;;;5036400;28;20202;-81
2022/10/17 11:01:43;;;;;;;2.47;2.05;;;21.30;1.00;;;;;;5037706;28;20200;-81
2022/10/17 11:04:52;;;;;;;3.25;2.00;;;21.40;1.00;;;;;;5035838;28;20285;-81
2022/10/17 11:07:29;;;;;;;6.10;2.10;;;21.70;1.00;;;;;;5034256;28;20198;-82
2022/10/17 11:10:22;;;;;;;2.45;2.13;;;21.90;1.00;;;;;;5035112;28;20186;-81
2022/10/17 11:13:07;;;;;;;4.25;2.22;;;22.10;1.00;;;;;;4997323;28;20202;-82
2022/10/17 11:15:45;;;;;;;3.22;2.08;;;22.00;1.00;;;;;;5036103;28;20182;-82
2022/10/17 11:18:22;;;;;;;4.07;2.15;;;22.00;1.00;;;;;;5038759;28;20213;-82
2022/10/17 11:20:58;;;;;;;3.53;2.28;;;21.70;1.00;;;;;;5037571;28;20197;-82
2022/10/17 11:23:39;;;;;;;4.85;2.30;;;21.60;1.00;;;;;;5034798;28;20222;-80
2022/10/17 11:26:24;;;;;;;3.13;2.10;;;21.60;1.00;;;;;;5029934;28;20205;-80
2022/10/17 11:28:51;;;;;;;2.60;1.98;;;21.60;1.00;;;;;;5029865;28;20688;-79
2022/10/17 11:31:18;;;;;;;2.38;2.08;;;21.50;1.00;;;;;;5032468;28;20218;-79
2022/10/17 11:33:58;;;;;;;2.72;2.10;;;21.40;1.00;;;;;;5033120;28;20631;-80
2022/10/17 11:36:29;;;;;;;2.97;2.33;;;21.50;1.00;;;;;;5040920;28;20178;-81
2022/10/17 11:39:07;;;;;;;4.00;1.85;;;21.40;1.00;;;;;;5025284;28;20207;-80
2022/10/17 11:41:53;;;;;;;4.75;2.30;;;21.40;1.00;;;;;;5026748;28;20214;-80
2022/10/17 11:44:26;;;;;;;4.00;2.30;;;21.40;1.00;;;;;;5034634;28;20249;-80
2022/10/17 11:47:25;;;;;;;3.90;2.00;;;21.50;1.00;;;;;;5035557;28;20375;-81
2022/10/17 11:50:05;;;;;;;4.18;2.00;;;21.60;1.00;;;;;;5037285;28;20182;-81
2022/10/17 11:52:45;;;;;;;2.05;1.70;;;21.70;1.00;;;;;;5030411;28;20441;-81
2022/10/17 11:55:20;;;;;;;5.78;2.17;;;21.90;1.00;;;;;;5036298;28;20281;-81
2022/10/17 11:57:59;;;;;;;4.78;1.95;;;21.90;1.00;;;;;;5032227;28;20240;-80
2022/10/17 12:01:03;;;;;;;3.30;1.90;;;21.90;1.00;;;;;;5028948;28;20222;-80
2022/10/17 12:04:00;;;;;;;2.00;1.60;;;21.90;1.00;;;;;;5028389;28;20971;-80
2022/10/17 12:06:41;;;;;;;6.53;1.80;;;21.90;1.00;;;;;;5024850;28;20193;-80
2022/10/17 12:09:16;;;;;;;2.67;2.10;;;21.70;1.00;;;;;;5034030;28;20212;-80
2022/10/17 12:11:52;;;;;;;5.95;2.97;;;21.80;1.00;;;;;;5036037;28;20188;-80
2022/10/17 12:14:41;;;;;;;3.22;2.00;;;21.70;1.00;;;;;;5034169;28;20221;-80
2022/10/17 12:17:37;;;;;;;4.22;1.95;;;21.80;1.00;;;;;;5032266;28;20533;-80
2022/10/17 12:20:24;;;;;;;4.15;1.83;;;22.00;1.00;;;;;;5035394;28;20210;-81
2022/10/17 12:22:52;;;;;;;3.28;2.22;;;22.00;1.00;;;;;;5034969;28;20186;-80
2022/10/17 12:25:30;;;;;;;4.15;2.10;;;22.20;1.00;;;;;;5030773;28;20205;-80
2022/10/17 12:28:05;;;;;;;5.63;2.10;;;22.20;1.00;;;;;;5032266;28;20179;-81
2022/10/17 12:30:31;;;;;;;3.47;2.17;;;22.30;1.00;;;;;;5036052;28;20186;-81
2022/10/17 12:33:00;;;;;;;4.43;2.00;;;22.20;1.00;;;;;;5032456;28;20561;-81
2022/10/17 12:35:27;;;;;;;3.20;2.50;;;22.40;1.00;;;;;;5029464;28;20190;-80
2022/10/17 12:37:53;;;;;;;5.20;2.33;;;22.20;1.00;;;;;;5029714;28;20292;-81
2022/10/17 12:40:49;;;;;;;3.38;2.17;;;22.00;1.00;;;;;;5026776;28;20682;-79
2022/10/17 12:43:15;;;;;;;4.10;2.15;;;21.90;1.00;;;;;;5011353;28;20193;-78
2022/10/17 12:45:50;;;;;;;1.98;1.60;;;21.90;1.00;;;;;;5032663;28;20540;-76
2022/10/17 12:48:35;;;;;;;2.15;1.73;;;21.80;1.00;;;;;;5024824;28;21068;-81
2022/10/17 12:51:10;;;;;;;2.50;1.77;;;21.90;1.00;;;;;;5034689;28;20190;-80
2022/10/17 12:53:45;;;;;;;4.95;2.00;;;21.80;1.00;;;;;;5033841;28;20198;-81
2022/10/17 12:56:12;;;;;;;6.25;2.13;;;21.80;1.00;;;;;;5029463;28;20695;-80
2022/10/17 12:58:44;;;;;;;4.68;2.00;;;21.70;1.00;;;;;;5036581;28;20967;-77
2022/10/17 13:01:17;;;;;;;3.20;1.67;;;21.60;1.00;;;;;;5025603;28;20207;-80
2022/10/17 13:03:46;;;;;;;4.78;1.80;;;21.70;1.00;;;;;;5029205;28;20194;-81
2022/10/17 13:06:20;;;;;;;3.65;1.80;;;21.70;1.00;;;;;;5027204;28;20179;-78
2022/10/17 13:08:51;;;;;;;2.28;1.70;;;21.90;1.00;;;;;;5031811;28;20489;-79
2022/10/17 13:11:23;;;;;;;3.90;1.70;;;22.00;1.00;;;;;;5025954;28;20187;-79
2022/10/17 13:13:52;;;;;;;5.97;1.80;;;22.00;1.00;;;;;;5024859;28;20700;-82
2022/10/17 13:16:36;;;;;;;3.92;2.28;;;21.90;1.00;;;;;;5026764;28;20217;-79
2022/10/17 13:19:12;;;;;;;3.83;1.85;;;22.00;1.00;;;;;;5023306;28;20276;-80
2022/10/17 13:21:38;;;;;;;5.20;2.72;;;22.10;1.00;;;;;;5024709;28;20248;-80